Thetford Center, VT (05075)

12:56 PM EDT on October 30, 2014 (GMT -0400)
Parker Rd | Change Station
CLOSE
Current Station
Personal Weather Station
Location: Vershire, VT
Elevation: 1273 ft
Nearby Weather Stations

Elev 1273 ft 43.93 °N, 72.30 °W | Updated 20 seconds ago

Overcast
Overcast
47.2 °F
Feels Like 47 °F
N
2.0
Wind Variable Wind from SW
Gusts 4.0 mph

Today
High -- | Low -- °F
--% Chance of Precip.
Yesterday
High -- | Low -- °F
Precip. -- in
7:22 AM 5:42 PM
Waxing Crescent, 45% visible
Pressure 29.95 in
Visibility 10.0 miles
Clouds Overcast 4400 ft
Windchill 47 °F
Dew Point 40 °F
Humidity 77%
Rainfall 0.00 in
Snow Depth Not available.
UV 1 out of 12
Pollen .10 out of 12
Air Quality Not available.
Flu Activity Not available.
METAR KLEB 301553Z 29003KT 10SM OVC044 09/04 A2994 RMK AO2 RAB15E34 SLP140 P0000 T00890044

More Conditions Fewer Conditions

Pressure 29.95 in
Visibility 10.0 miles
Clouds Overcast 4400 ft
Windchill 47 °F
Dew Point 40 °F
Humidity 77%
Rainfall 0.00 in
Snow Depth Not available.
UV 1 out of 12
Pollen .10 out of 12
Air Quality Not available.
Flu Activity Not available.
METAR KLEB 301553Z 29003KT 10SM OVC044 09/04 A2994 RMK AO2 RAB15E34 SLP140 P0000 T00890044

More Conditions Fewer Conditions

10-Day Weather Forecast

Almanac

Astronomy

Oct. 30, 2014 Rise Set
Actual Time
Civil Twilight
Nautical Twilight
Astronomical Twilight
Moon
Length of Visible Light
Length of Day
Tomorrow will be .
, % of the Moon is Illuminated

Today's Extremes

State Highs State Lows

Community

WunderPhotos

Upload Photos

1,766,402 photos uploaded!

WunderBlogs® & News

Nearby

Air Quality

  Air Quality AQ Index Pollutant
Not available.

Snow Depth

Station Depth Elevation

Earthquake Activity

City Distance Mag. Time & Date
Minimum magnitude displayed is 2.5.

Coastal Water Temperatures

Place Temperature

Nearby Weather Stations